Time;durP1;ratioP1;P1;durP2;ratioP2;P2;SDS_P1;SDS_P2;PMS_P1;PMS_P2;Temp;Humidity;BMP_temperature;BMP_pressure;BME280_temperature;BME280_humidity;BME280_pressure;Samples;Min_cycle;Max_cycle;Signal;HPM_P1;HPM_P2
2022/08/06 00:02:09;;;;;;;0.43;0.43;;;;;;;;;;5037543;28;20025;-75
2022/08/06 00:04:35;;;;;;;0.85;0.80;;;;;;;;;;5022305;28;20038;-74
2022/08/06 00:07:01;;;;;;;0.90;0.85;;;;;;;;;;5026034;28;20032;-74
2022/08/06 00:09:30;;;;;;;0.70;0.70;;;;;;;;;;5025474;28;20022;-75
2022/08/06 00:12:06;;;;;;;3.33;0.57;;;;;;;;;;5030860;28;20039;-74
2022/08/06 00:14:32;;;;;;;0.40;0.40;;;;;;;;;;5023143;28;20071;-75
2022/08/06 00:16:58;;;;;;;0.47;0.47;;;;;;;;;;5024014;28;20176;-74
2022/08/06 00:19:24;;;;;;;0.40;0.40;;;;;;;;;;5026452;28;20108;-75
2022/08/06 00:21:51;;;;;;;1.85;0.40;;;;;;;;;;5025773;28;20121;-75
2022/08/06 00:24:17;;;;;;;0.47;0.47;;;;;;;;;;5026622;28;20109;-75
2022/08/06 00:26:43;;;;;;;0.30;0.30;;;;;;;;;;5025466;28;20116;-74
2022/08/06 00:29:09;;;;;;;1.00;0.45;;;;;;;;;;5031585;28;20504;-75
2022/08/06 00:31:35;;;;;;;0.40;0.40;;;;;;;;;;5022437;28;20469;-75
2022/08/06 00:34:02;;;;;;;0.77;0.50;;;;;;;;;;5026240;28;20030;-75
2022/08/06 00:36:29;;;;;;;2.50;0.35;;;;;;;;;;5026617;28;20172;-75
2022/08/06 00:38:55;;;;;;;0.40;0.40;;;;;;;;;;5034894;28;20430;-75
2022/08/06 00:41:22;;;;;;;4.13;0.52;;;;;;;;;;5031090;28;20441;-76
2022/08/06 00:43:48;;;;;;;0.40;0.40;;;;;;;;;;5028815;28;20042;-74
2022/08/06 00:46:14;;;;;;;0.40;0.40;;;;;;;;;;5030914;28;20032;-74
2022/08/06 00:48:40;;;;;;;0.50;0.47;;;;;;;;;;5030239;28;20029;-75
2022/08/06 00:51:06;;;;;;;0.30;0.30;;;;;;;;;;5025942;28;20025;-73
2022/08/06 00:53:32;;;;;;;0.43;0.43;;;;;;;;;;5026182;28;20033;-74
2022/08/06 00:56:00;;;;;;;0.30;0.30;;;;;;;;;;5030120;28;20034;-75
2022/08/06 00:58:27;;;;;;;0.38;0.30;;;;;;;;;;5030345;28;20123;-74
2022/08/06 01:00:52;;;;;;;0.25;0.25;;;;;;;;;;5029971;28;20042;-74
2022/08/06 01:03:18;;;;;;;0.30;0.30;;;;;;;;;;5028420;28;20854;-74
2022/08/06 01:05:44;;;;;;;1.00;0.40;;;;;;;;;;5030462;28;20381;-75
2022/08/06 01:08:11;;;;;;;0.60;0.60;;;;;;;;;;5030436;28;20099;-74
2022/08/06 01:10:37;;;;;;;0.20;0.20;;;;;;;;;;5034881;28;20430;-74
2022/08/06 01:13:03;;;;;;;0.43;0.20;;;;;;;;;;5030806;28;20186;-73
2022/08/06 01:15:29;;;;;;;0.60;0.60;;;;;;;;;;5032840;28;20026;-73
2022/08/06 01:18:06;;;;;;;0.93;0.68;;;;;;;;;;5027581;28;20403;-77
2022/08/06 01:20:52;;;;;;;0.35;0.35;;;;;;;;;;5020521;28;20111;-75
2022/08/06 01:23:37;;;;;;;0.60;0.60;;;;;;;;;;5040142;28;20087;-75
2022/08/06 01:26:21;;;;;;;0.38;0.32;;;;;;;;;;5027349;28;20040;-74
2022/08/06 01:28:49;;;;;;;0.68;0.60;;;;;;;;;;5026920;28;20055;-77
2022/08/06 01:31:18;;;;;;;0.60;0.60;;;;;;;;;;5025066;28;20404;-75
2022/08/06 01:33:47;;;;;;;1.55;0.80;;;;;;;;;;5026646;28;20038;-77
2022/08/06 01:36:17;;;;;;;0.70;0.60;;;;;;;;;;5028859;28;20025;-77
2022/08/06 01:38:46;;;;;;;0.85;0.57;;;;;;;;;;5026963;28;20025;-77
2022/08/06 01:41:38;;;;;;;2.00;0.52;;;;;;;;;;5030725;28;20025;-75
2022/08/06 01:44:02;;;;;;;0.65;0.45;;;;;;;;;;5038662;28;20036;-75
2022/08/06 01:46:27;;;;;;;1.23;0.73;;;;;;;;;;5028814;28;20035;-75
2022/08/06 01:48:54;;;;;;;1.27;0.70;;;;;;;;;;5027372;28;20384;-76
2022/08/06 01:51:21;;;;;;;0.55;0.32;;;;;;;;;;5029014;28;20084;-75
2022/08/06 01:53:47;;;;;;;0.93;0.52;;;;;;;;;;5028397;28;20087;-76
2022/08/06 01:56:13;;;;;;;0.57;0.57;;;;;;;;;;5026784;28;20075;-75
2022/08/06 01:58:41;;;;;;;2.28;0.50;;;;;;;;;;5031153;28;20033;-76
2022/08/06 02:01:09;;;;;;;0.65;0.38;;;;;;;;;;5030735;28;20388;-76
2022/08/06 02:03:35;;;;;;;0.55;0.55;;;;;;;;;;5033706;28;20032;-76
2022/08/06 02:06:02;;;;;;;0.40;0.40;;;;;;;;;;5026531;28;20037;-77
2022/08/06 02:08:35;;;;;;;0.30;0.30;;;;;;;;;;5028284;28;20033;-74
2022/08/06 02:11:02;;;;;;;0.68;0.68;;;;;;;;;;5029838;28;20070;-76
2022/08/06 02:13:30;;;;;;;0.45;0.40;;;;;;;;;;5023796;28;20030;-75
2022/08/06 02:15:57;;;;;;;0.30;0.30;;;;;;;;;;5026166;28;20083;-75
2022/08/06 02:18:23;;;;;;;0.40;0.40;;;;;;;;;;5026579;28;20025;-75
2022/08/06 02:20:51;;;;;;;0.60;0.52;;;;;;;;;;5026087;28;20107;-76
2022/08/06 02:23:20;;;;;;;0.82;0.40;;;;;;;;;;5027980;28;20036;-75
2022/08/06 02:25:47;;;;;;;0.50;0.40;;;;;;;;;;5031318;28;20052;-75
2022/08/06 02:28:13;;;;;;;0.40;0.40;;;;;;;;;;5024845;28;20033;-75
2022/08/06 02:30:42;;;;;;;4.30;0.98;;;;;;;;;;5025726;28;20160;-76
2022/08/06 02:33:09;;;;;;;0.32;0.20;;;;;;;;;;5023012;28;20070;-75
2022/08/06 02:35:38;;;;;;;0.30;0.30;;;;;;;;;;5026968;28;20063;-75
2022/08/06 02:38:08;;;;;;;0.65;0.50;;;;;;;;;;5028561;28;20029;-76
2022/08/06 02:40:40;;;;;;;1.33;0.40;;;;;;;;;;5027684;28;20029;-76
2022/08/06 02:43:11;;;;;;;0.30;0.30;;;;;;;;;;5023003;28;20102;-76
2022/08/06 02:45:44;;;;;;;2.65;0.50;;;;;;;;;;5030058;28;20411;-76
2022/08/06 02:48:20;;;;;;;0.57;0.50;;;;;;;;;;5027451;28;20039;-76
2022/08/06 02:50:48;;;;;;;0.43;0.43;;;;;;;;;;5028735;28;20113;-76
2022/08/06 02:53:16;;;;;;;0.38;0.38;;;;;;;;;;5025031;28;20029;-76
2022/08/06 02:55:45;;;;;;;0.38;0.38;;;;;;;;;;5025229;28;20803;-76
2022/08/06 02:58:14;;;;;;;0.30;0.30;;;;;;;;;;5026660;28;20110;-76
2022/08/06 03:00:41;;;;;;;0.40;0.20;;;;;;;;;;5028402;28;20032;-74
2022/08/06 03:03:08;;;;;;;0.65;0.40;;;;;;;;;;5026233;28;20022;-76
2022/08/06 03:05:36;;;;;;;0.40;0.35;;;;;;;;;;5029058;28;20569;-76
2022/08/06 03:08:03;;;;;;;0.30;0.30;;;;;;;;;;5025943;28;20558;-75
2022/08/06 03:10:30;;;;;;;0.32;0.32;;;;;;;;;;5029212;28;20492;-76
2022/08/06 03:12:56;;;;;;;2.10;1.70;;;;;;;;;;5028858;28;20461;-76
2022/08/06 03:15:23;;;;;;;0.52;0.40;;;;;;;;;;5026854;28;20187;-75
2022/08/06 03:17:50;;;;;;;0.20;0.20;;;;;;;;;;5029301;28;20030;-74
2022/08/06 03:20:19;;;;;;;0.43;0.30;;;;;;;;;;5026877;28;20108;-74
2022/08/06 03:22:46;;;;;;;0.20;0.20;;;;;;;;;;5023821;28;20036;-74
2022/08/06 03:25:13;;;;;;;0.40;0.40;;;;;;;;;;5026404;28;20124;-74
2022/08/06 03:27:40;;;;;;;0.20;0.20;;;;;;;;;;5022842;28;20124;-75
2022/08/06 03:30:07;;;;;;;0.30;0.30;;;;;;;;;;5025533;28;20045;-76
2022/08/06 03:32:33;;;;;;;0.85;0.77;;;;;;;;;;5025285;28;20026;-74
2022/08/06 03:35:00;;;;;;;0.47;0.38;;;;;;;;;;5023539;28;20087;-77
2022/08/06 03:37:26;;;;;;;0.30;0.30;;;;;;;;;;5027201;28;20026;-74
2022/08/06 03:39:52;;;;;;;0.30;0.30;;;;;;;;;;5025774;28;20041;-76
2022/08/06 03:42:18;;;;;;;0.25;0.25;;;;;;;;;;5025416;28;20060;-75
2022/08/06 03:44:44;;;;;;;0.32;0.32;;;;;;;;;;5027363;28;20548;-76
2022/08/06 03:47:13;;;;;;;0.20;0.20;;;;;;;;;;5026462;28;20152;-76
2022/08/06 03:49:57;;;;;;;0.10;0.10;;;;;;;;;;5024852;28;20097;-76
2022/08/06 03:52:25;;;;;;;0.45;0.32;;;;;;;;;;5026363;28;20029;-75
2022/08/06 03:54:53;;;;;;;0.45;0.45;;;;;;;;;;5027564;28;20092;-76
2022/08/06 03:57:20;;;;;;;0.40;0.40;;;;;;;;;;5037491;28;20053;-75
2022/08/06 03:59:47;;;;;;;0.52;0.52;;;;;;;;;;5025951;28;20025;-76
2022/08/06 04:02:15;;;;;;;0.77;0.50;;;;;;;;;;5026027;28;20480;-74
2022/08/06 04:04:41;;;;;;;0.40;0.40;;;;;;;;;;5023023;28;20455;-76
2022/08/06 04:07:07;;;;;;;0.30;0.30;;;;;;;;;;5026262;28;20072;-74
2022/08/06 04:09:34;;;;;;;0.77;0.50;;;;;;;;;;5027969;28;20030;-75
2022/08/06 04:12:00;;;;;;;0.30;0.30;;;;;;;;;;5027789;28;20021;-75
2022/08/06 04:14:26;;;;;;;0.30;0.30;;;;;;;;;;5026353;28;20026;-75
2022/08/06 04:16:53;;;;;;;0.50;0.40;;;;;;;;;;5031300;28;20026;-75
2022/08/06 04:19:19;;;;;;;0.28;0.28;;;;;;;;;;5033852;28;20029;-76
2022/08/06 04:21:46;;;;;;;0.32;0.32;;;;;;;;;;5027657;28;20037;-75
2022/08/06 04:24:13;;;;;;;0.30;0.30;;;;;;;;;;5027214;28;20044;-76
2022/08/06 04:26:40;;;;;;;0.63;0.63;;;;;;;;;;5027233;28;20094;-74
2022/08/06 04:29:09;;;;;;;0.85;0.57;;;;;;;;;;5026348;28;20501;-74
2022/08/06 04:31:35;;;;;;;0.30;0.30;;;;;;;;;;5027986;28;20045;-75
2022/08/06 04:34:02;;;;;;;0.43;0.43;;;;;;;;;;5027793;28;20029;-73
2022/08/06 04:36:28;;;;;;;3.60;0.38;;;;;;;;;;5032735;28;20030;-72
2022/08/06 04:38:54;;;;;;;0.50;0.50;;;;;;;;;;5027722;28;20036;-74
2022/08/06 04:41:20;;;;;;;0.40;0.40;;;;;;;;;;5028539;28;20033;-74
2022/08/06 04:43:46;;;;;;;3.10;1.00;;;;;;;;;;5031143;28;20037;-75
2022/08/06 04:46:13;;;;;;;0.32;0.32;;;;;;;;;;5031136;28;20029;-75
2022/08/06 04:48:39;;;;;;;0.50;0.50;;;;;;;;;;5033534;28;20033;-75
2022/08/06 04:51:05;;;;;;;0.50;0.50;;;;;;;;;;5029142;28;20040;-72
2022/08/06 04:53:38;;;;;;;1.55;0.63;;;;;;;;;;5028040;28;20384;-75
2022/08/06 04:56:04;;;;;;;0.40;0.40;;;;;;;;;;5024450;28;20037;-75
2022/08/06 04:58:30;;;;;;;2.20;0.70;;;;;;;;;;5032891;28;20688;-75
2022/08/06 05:00:56;;;;;;;0.73;0.73;;;;;;;;;;5027341;28;20034;-75
2022/08/06 05:03:22;;;;;;;1.83;0.40;;;;;;;;;;5030335;28;20029;-77
2022/08/06 05:05:53;;;;;;;0.45;0.45;;;;;;;;;;5028037;28;20026;-76
2022/08/06 05:08:21;;;;;;;0.30;0.30;;;;;;;;;;5035354;28;20036;-75
2022/08/06 05:11:05;;;;;;;0.55;0.55;;;;;;;;;;5029002;28;20091;-76
2022/08/06 05:13:34;;;;;;;0.52;0.50;;;;;;;;;;5040658;28;20025;-76
2022/08/06 05:16:03;;;;;;;2.35;0.70;;;;;;;;;;5031646;28;20033;-76
2022/08/06 05:18:37;;;;;;;0.32;0.32;;;;;;;;;;5030200;28;20025;-75
2022/08/06 05:21:03;;;;;;;0.30;0.30;;;;;;;;;;5030159;28;20037;-76
2022/08/06 05:23:33;;;;;;;0.30;0.30;;;;;;;;;;5029098;28;20037;-74
2022/08/06 05:25:59;;;;;;;0.40;0.40;;;;;;;;;;5027823;28;20040;-74
2022/08/06 05:28:25;;;;;;;0.50;0.50;;;;;;;;;;5027762;28;20033;-75
2022/08/06 05:30:51;;;;;;;0.20;0.20;;;;;;;;;;5026682;28;20048;-76
2022/08/06 05:33:24;;;;;;;0.40;0.40;;;;;;;;;;5030743;28;20040;-75
2022/08/06 05:35:51;;;;;;;1.30;0.70;;;;;;;;;;5030459;28;20022;-75
2022/08/06 05:38:17;;;;;;;0.28;0.28;;;;;;;;;;5030964;28;20040;-76
2022/08/06 05:40:43;;;;;;;0.32;0.32;;;;;;;;;;5037699;28;20042;-73
2022/08/06 05:43:09;;;;;;;0.40;0.40;;;;;;;;;;5031575;28;20029;-75
2022/08/06 05:45:36;;;;;;;0.40;0.40;;;;;;;;;;5028323;28;20029;-74
2022/08/06 05:48:04;;;;;;;0.52;0.47;;;;;;;;;;5026230;28;20048;-75
2022/08/06 05:50:34;;;;;;;0.50;0.50;;;;;;;;;;5030469;28;20128;-74
2022/08/06 05:53:04;;;;;;;0.70;0.60;;;;;;;;;;5031050;28;20017;-75
2022/08/06 05:55:34;;;;;;;1.95;0.40;;;;;;;;;;5027984;28;20079;-75
2022/08/06 05:58:01;;;;;;;1.48;1.33;;;;;;;;;;5029556;28;20033;-75
2022/08/06 06:00:29;;;;;;;0.55;0.55;;;;;;;;;;5027445;28;20041;-74
2022/08/06 06:02:56;;;;;;;0.50;0.47;;;;;;;;;;5024846;28;20037;-77
2022/08/06 06:05:23;;;;;;;4.53;0.82;;;;;;;;;;5025658;28;20029;-76
2022/08/06 06:07:49;;;;;;;0.32;0.32;;;;;;;;;;5029488;28;20033;-77
2022/08/06 06:10:16;;;;;;;0.65;0.60;;;;;;;;;;5028126;28;20124;-82
2022/08/06 06:12:43;;;;;;;1.05;0.57;;;;;;;;;;5030095;28;20029;-76
2022/08/06 06:15:11;;;;;;;0.63;0.50;;;15.30;99.90;;;;;;5029445;28;20030;-76
2022/08/06 06:17:57;;;;;;;0.75;0.52;;;15.20;99.90;;;;;;5024281;28;20551;-76
2022/08/06 06:20:41;;;;;;;4.53;0.50;;;15.30;99.90;;;;;;5019521;28;20030;-76
2022/08/06 06:23:19;;;;;;;0.93;0.47;;;15.50;99.90;;;;;;5028849;28;20065;-75
2022/08/06 06:25:55;;;;;;;0.47;0.47;;;15.70;99.90;;;;;;5023908;28;20033;-74
2022/08/06 06:28:34;;;;;;;0.55;0.52;;;15.70;99.90;;;;;;5026840;28;20052;-77
2022/08/06 06:31:07;;;;;;;0.70;0.60;;;15.70;99.90;;;;;;5021246;28;20048;-79
2022/08/06 06:33:57;;;;;;;2.80;0.80;;;15.60;99.90;;;;;;5025904;28;20069;-76
2022/08/06 06:36:37;;;;;;;0.50;0.50;;;15.70;99.90;;;;;;5025749;28;20040;-79
2022/08/06 06:39:08;;;;;;;0.22;0.22;;;15.70;99.90;;;;;;5027889;28;20119;-79
2022/08/06 06:41:43;;;;;;;5.00;1.38;;;15.80;99.90;;;;;;5025015;28;20030;-76
2022/08/06 06:44:11;;;;;;;0.77;0.63;;;15.90;99.90;;;;;;5035267;28;20026;-75
2022/08/06 06:46:56;;;;;;;0.65;0.65;;;16.00;99.90;;;;;;5024336;28;20204;-75
2022/08/06 06:49:32;;;;;;;0.57;0.57;;;16.00;99.90;;;;;;5028795;28;20069;-81
2022/08/06 06:52:05;;;;;;;0.47;0.40;;;16.10;99.90;;;;;;5020322;28;20399;-82
2022/08/06 06:54:39;;;;;;;2.58;0.80;;;16.20;99.90;;;;;;5025335;28;20025;-81
2022/08/06 06:57:07;;;;;;;0.50;0.50;;;;;;;;;;5016143;28;20034;-78
2022/08/06 06:59:35;;;;;;;2.65;0.98;;;;;;;;;;5033024;28;20484;-77
2022/08/06 07:02:02;;;;;;;0.28;0.28;;;;;;;;;;5025452;28;20017;-77
2022/08/06 07:04:30;;;;;;;0.70;0.63;;;;;;;;;;5026645;28;20036;-78
2022/08/06 07:06:57;;;;;;;0.38;0.38;;;;;;;;;;5023869;28;20029;-76
2022/08/06 07:09:24;;;;;;;0.60;0.45;;;;;;;;;;5028966;28;20032;-75
2022/08/06 07:11:51;;;;;;;0.52;0.50;;;;;;;;;;5025052;28;20464;-77
2022/08/06 07:14:20;;;;;;;0.30;0.30;;;;;;;;;;5025184;28;20018;-77
2022/08/06 07:16:48;;;;;;;0.20;0.20;;;;;;;;;;5022902;28;20653;-77
2022/08/06 07:19:15;;;;;;;0.30;0.30;;;;;;;;;;5025835;28;20028;-76
2022/08/06 07:21:42;;;;;;;0.30;0.30;;;;;;;;;;5025708;28;20033;-77
2022/08/06 07:24:09;;;;;;;0.40;0.40;;;;;;;;;;5035318;28;20757;-77
2022/08/06 07:26:35;;;;;;;0.50;0.50;;;;;;;;;;5025771;28;20025;-76
2022/08/06 07:29:02;;;;;;;2.72;0.40;;;;;;;;;;5030705;28;20052;-77
2022/08/06 07:31:30;;;;;;;0.40;0.35;;;;;;;;;;5025566;28;20040;-78
2022/08/06 07:33:56;;;;;;;0.40;0.40;;;;;;;;;;5024429;28;20450;-77
2022/08/06 07:36:24;;;;;;;0.40;0.40;;;;;;;;;;5025393;28;20033;-84
2022/08/06 07:38:50;;;;;;;0.30;0.30;;;;;;;;;;5026340;28;20021;-83
2022/08/06 07:41:17;;;;;;;1.75;0.43;;;;;;;;;;5017649;28;20037;-84
2022/08/06 07:43:52;;;;;;;0.50;0.50;;;;;;;;;;5030204;28;20423;-78
2022/08/06 07:46:20;;;;;;;0.47;0.40;;;;;;;;;;5026436;28;20441;-76
2022/08/06 07:48:58;;;;;;;0.85;0.70;;;;;;;;;;5031189;28;20057;-75
2022/08/06 07:51:27;;;;;;;0.28;0.20;;;;;;;;;;5030351;28;20522;-77
2022/08/06 07:53:53;;;;;;;0.45;0.45;;;;;;;;;;5020603;28;20041;-77
2022/08/06 07:56:20;;;;;;;0.40;0.40;;;;;;;;;;5033869;28;20021;-77
2022/08/06 07:59:09;;;;;;;1.00;0.40;;;;;;;;;;5030068;28;20514;-77
2022/08/06 08:01:35;;;;;;;0.30;0.30;;;;;;;;;;5028557;28;20612;-78
2022/08/06 08:07:07;;;;;;;0.55;0.50;;;;;;;;;;5028907;28;20048;-87
2022/08/06 08:09:34;;;;;;;0.30;0.30;;;;;;;;;;5029523;28;20377;-81
2022/08/06 08:12:00;;;;;;;0.35;0.35;;;;;;;;;;5029196;28;20080;-78
2022/08/06 08:14:26;;;;;;;0.20;0.20;;;;;;;;;;5027163;28;20037;-82
2022/08/06 08:16:52;;;;;;;1.00;0.40;;;;;;;;;;5028077;28;20331;-81
2022/08/06 08:19:27;;;;;;;0.20;0.20;;;;;;;;;;5027768;28;20025;-79
2022/08/06 08:21:56;;;;;;;0.35;0.35;;;;;;;;;;5025207;28;20029;-79
2022/08/06 08:24:22;;;;;;;0.30;0.30;;;;;;;;;;5030388;28;20095;-74
2022/08/06 08:26:48;;;;;;;0.30;0.30;;;;;;;;;;5026515;28;20029;-79
2022/08/06 08:29:14;;;;;;;0.40;0.40;;;;;;;;;;5025583;28;20476;-78
2022/08/06 08:31:40;;;;;;;0.28;0.28;;;;;;;;;;5026822;28;20047;-79
2022/08/06 08:34:08;;;;;;;0.32;0.32;;;;;;;;;;5027139;28;20628;-74
2022/08/06 08:36:35;;;;;;;0.28;0.28;;;;;;;;;;5029799;28;20035;-74
2022/08/06 08:39:01;;;;;;;0.70;0.63;;;;;;;;;;5039394;28;20040;-74
2022/08/06 08:41:31;;;;;;;0.55;0.50;;;;;;;;;;5033551;28;20022;-75
2022/08/06 08:44:05;;;;;;;0.32;0.32;;;;;;;;;;5029561;28;20040;-74
2022/08/06 08:46:33;;;;;;;0.60;0.60;;;;;;;;;;5035740;28;20028;-74
2022/08/06 08:49:02;;;;;;;0.50;0.30;;;;;;;;;;5032806;28;20094;-75
2022/08/06 08:51:28;;;;;;;0.63;0.40;;;;;;;;;;5033490;28;20054;-74
2022/08/06 08:53:58;;;;;;;0.38;0.38;;;;;;;;;;5036443;28;20034;-74
2022/08/06 08:56:24;;;;;;;0.20;0.20;;;;;;;;;;5030879;28;20049;-75
2022/08/06 08:58:50;;;;;;;0.20;0.20;;;;;;;;;;5027682;28;20484;-75
2022/08/06 09:01:16;;;;;;;0.43;0.30;;;;;;;;;;5040104;28;20037;-73
2022/08/06 09:03:42;;;;;;;0.45;0.45;;;;;;;;;;5037600;28;20437;-75
2022/08/06 09:06:09;;;;;;;0.20;0.20;;;;;;;;;;5028488;28;20037;-75
2022/08/06 09:08:36;;;;;;;0.35;0.35;;;;;;;;;;5030119;28;20052;-74
2022/08/06 09:11:02;;;;;;;0.20;0.20;;;;;;;;;;5029935;28;20043;-74
2022/08/06 09:13:28;;;;;;;0.30;0.30;;;;;;;;;;5038257;28;20026;-75
2022/08/06 09:15:54;;;;;;;0.40;0.25;;;;;;;;;;5032160;28;20183;-76
2022/08/06 09:18:21;;;;;;;0.65;0.50;;;;;;;;;;5024682;28;20033;-74
2022/08/06 09:20:47;;;;;;;0.32;0.32;;;;;;;;;;5026720;28;20039;-85
2022/08/06 09:23:15;;;;;;;0.25;0.25;;;;;;;;;;5016470;28;20041;-74
2022/08/06 09:25:45;;;;;;;0.68;0.68;;;;;;;;;;5022909;28;20037;-75
2022/08/06 09:28:30;;;;;;;0.30;0.30;;;;;;;;;;5029750;28;20380;-74
2022/08/06 09:30:59;;;;;;;1.00;0.40;;;;;;;;;;5031173;28;20136;-75
2022/08/06 09:33:25;;;;;;;0.30;0.30;;;;;;;;;;5031017;28;20331;-74
2022/08/06 09:35:58;;;;;;;0.40;0.40;;;;;;;;;;5032737;28;20036;-75
2022/08/06 09:38:25;;;;;;;0.30;0.30;;;;;;;;;;5028025;28;20025;-75
2022/08/06 09:41:03;;;;;;;0.30;0.30;;;;;;;;;;5024826;28;20044;-74
2022/08/06 09:43:29;;;;;;;0.38;0.38;;;;;;;;;;5008389;28;20026;-74
2022/08/06 09:45:55;;;;;;;0.30;0.30;;;;;;;;;;5023643;28;20824;-73
2022/08/06 09:48:22;;;;;;;1.42;0.47;;;;;;;;;;5020745;28;20463;-74
2022/08/06 09:50:49;;;;;;;1.20;0.30;;;;;;;;;;5021991;28;20669;-74
2022/08/06 09:53:17;;;;;;;1.55;0.55;;;;;;;;;;5020206;28;20036;-72
2022/08/06 09:55:43;;;;;;;0.20;0.20;;;;;;;;;;5017862;28;20070;-72
2022/08/06 09:58:09;;;;;;;0.22;0.22;;;;;;;;;;5017616;28;20517;-72
2022/08/06 10:00:36;;;;;;;4.93;0.68;;;;;;;;;;5016901;28;20048;-73
2022/08/06 10:03:04;;;;;;;0.43;0.43;;;;;;;;;;5020580;28;20539;-72
2022/08/06 10:05:31;;;;;;;0.95;0.77;;;;;;;;;;5026318;28;20022;-71
2022/08/06 10:08:10;;;;;;;0.50;0.50;;;;;;;;;;5018634;28;20087;-72
2022/08/06 10:10:47;;;;;;;0.85;0.70;;;;;;;;;;5015815;28;20120;-72
2022/08/06 10:13:16;;;;;;;3.85;0.47;;;;;;;;;;5019377;28;20552;-72
2022/08/06 10:15:51;;;;;;;0.15;0.15;;;;;;;;;;5027518;28;20040;-72
2022/08/06 10:18:34;;;;;;;0.20;0.20;;;;;;;;;;5015749;28;20029;-75
2022/08/06 10:21:01;;;;;;;0.30;0.30;;;;;;;;;;5016005;28;20063;-74
2022/08/06 10:23:27;;;;;;;0.40;0.40;;;;;;;;;;5021266;28;20451;-75
2022/08/06 10:25:53;;;;;;;0.77;0.30;;;;;;;;;;5021571;28;20043;-78
2022/08/06 10:28:20;;;;;;;0.30;0.30;;;;;;;;;;5009122;28;20071;-76
2022/08/06 10:30:46;;;;;;;0.65;0.30;;;;;;;;;;5012846;28;20065;-75
2022/08/06 10:33:13;;;;;;;0.68;0.30;;;;;;;;;;5015613;28;20984;-77
2022/08/06 10:35:41;;;;;;;0.30;0.30;;;;;;;;;;5018351;28;20455;-75
2022/08/06 10:38:08;;;;;;;0.30;0.30;;;;;;;;;;5014620;28;20388;-78
2022/08/06 10:40:34;;;;;;;0.30;0.30;;;;;;;;;;5013028;28;20033;-76
2022/08/06 10:43:06;;;;;;;0.20;0.20;;;;;;;;;;5012951;28;20033;-76
2022/08/06 10:45:33;;;;;;;0.30;0.30;;;;;;;;;;5021480;28;20087;-76
2022/08/06 10:47:59;;;;;;;0.20;0.20;;;;;;;;;;5020473;28;20389;-76
2022/08/06 10:50:25;;;;;;;0.30;0.30;;;;;;;;;;5005289;28;20472;-77
2022/08/06 10:52:52;;;;;;;0.22;0.22;;;;;;;;;;5007881;28;20033;-76
2022/08/06 10:55:18;;;;;;;1.55;0.75;;;;;;;;;;5016068;28;20044;-76
2022/08/06 10:57:45;;;;;;;1.73;0.45;;;;;;;;;;5015473;28;20026;-75
2022/08/06 11:00:11;;;;;;;0.57;0.32;;;;;;;;;;5022963;28;20029;-77
2022/08/06 11:02:43;;;;;;;0.63;0.50;;;;;;;;;;5006537;28;20116;-78
2022/08/06 11:05:14;;;;;;;0.45;0.40;;;;;;;;;;5010357;28;20429;-77
2022/08/06 11:07:58;;;;;;;0.22;0.22;;;;;;;;;;5010426;28;20091;-79
2022/08/06 11:10:37;;;;;;;0.28;0.28;;;;;;;;;;5004774;28;20189;-79
2022/08/06 11:13:09;;;;;;;0.52;0.47;;;;;;;;;;5012398;28;20041;-79
2022/08/06 11:15:36;;;;;;;0.93;0.32;;;;;;;;;;5014874;28;20017;-74
2022/08/06 11:18:07;;;;;;;0.40;0.32;;;;;;;;;;5012475;28;20025;-78
2022/08/06 11:20:36;;;;;;;0.35;0.35;;;;;;;;;;5010565;28;20041;-77
2022/08/06 11:23:21;;;;;;;0.90;0.50;;;;;;;;;;5015290;28;20025;-75
2022/08/06 11:25:53;;;;;;;0.45;0.30;;;;;;;;;;5009559;28;20044;-76
2022/08/06 11:28:28;;;;;;;0.50;0.50;;;;;;;;;;5015980;28;20030;-76
2022/08/06 11:30:55;;;;;;;0.82;0.45;;;;;;;;;;5018487;28;20034;-76
2022/08/06 11:33:43;;;;;;;0.40;0.40;;;24.50;55.70;;;;;;5010479;28;20057;-74
2022/08/06 11:36:23;;;;;;;2.80;0.40;;;24.40;55.10;;;;;;5013936;28;20092;-75
2022/08/06 11:38:54;;;;;;;0.30;0.30;;;24.90;54.10;;;;;;5017074;28;20045;-74
2022/08/06 11:41:21;;;;;;;;;;;25.50;52.80;;;;;;5016191;28;20029;-74
2022/08/06 11:43:52;;;;;;;0.77;0.55;;;25.30;51.70;;;;;;5023381;28;20323;-74
2022/08/06 11:46:25;;;;;;;0.63;0.63;;;24.50;56.70;;;;;;5051348;28;20504;-74
2022/08/06 11:49:00;;;;;;;0.32;0.32;;;25.00;55.90;;;;;;5016518;28;20416;-74
2022/08/06 11:51:53;;;;;;;0.43;0.30;;;25.30;56.90;;;;;;5016062;28;20107;-72
2022/08/06 11:54:19;;;;;;;0.30;0.30;;;25.70;56.90;;;;;;5017336;28;20025;-75
2022/08/06 11:57:06;;;;;;;0.32;0.32;;;26.40;52.70;;;;;;5016571;28;20083;-75
2022/08/06 11:59:36;;;;;;;2.50;0.93;;;26.90;52.90;;;;;;5043678;28;20401;-78
2022/08/06 12:02:08;;;;;;;0.43;0.43;;;26.90;55.50;;;;;;5009028;28;20033;-73
2022/08/06 12:04:39;;;;;;;0.40;0.40;;;26.70;49.60;;;;;;5014844;28;20033;-77
2022/08/06 12:07:17;;;;;;;0.20;0.20;;;25.60;55.50;;;;;;5023152;28;20112;-76
2022/08/06 12:09:44;;;;;;;0.40;0.30;;;25.00;57.10;;;;;;5023996;28;20025;-77
2022/08/06 12:12:30;;;;;;;0.30;0.30;;;24.70;58.00;;;;;;5020903;28;20024;-78
2022/08/06 12:14:58;;;;;;;1.60;0.50;;;25.50;58.30;;;;;;5020252;28;20087;-77
2022/08/06 12:17:25;;;;;;;0.20;0.20;;;26.40;50.70;;;;;;5011343;28;20848;-74
2022/08/06 12:19:53;;;;;;;0.28;0.28;;;27.10;51.40;;;;;;5029093;28;20038;-75
2022/08/06 12:22:20;;;;;;;0.40;0.40;;;28.10;51.60;;;;;;5024764;28;20383;-76
2022/08/06 12:24:54;;;;;;;0.75;0.43;;;28.50;49.90;;;;;;5025958;28;20026;-76
2022/08/06 12:27:23;;;;;;;0.30;0.30;;;28.10;48.10;;;;;;5010585;28;20025;-76
2022/08/06 12:29:55;;;;;;;0.85;0.52;;;27.00;50.20;;;;;;5011987;28;20102;-77
2022/08/06 12:32:27;;;;;;;0.55;0.25;;;25.60;53.40;;;;;;5020694;28;20029;-77
2022/08/06 12:34:55;;;;;;;0.30;0.30;;;26.00;53.60;;;;;;5020500;28;20037;-77
2022/08/06 12:37:32;;;;;;;0.32;0.30;;;27.30;51.80;;;;;;5027554;28;20104;-75
2022/08/06 12:42:41;;;;;;;0.40;0.40;;;29.10;49.00;;;;;;5014879;28;20447;-73
2022/08/06 12:45:09;;;;;;;0.17;0.17;;;29.00;48.40;;;;;;5018283;28;20033;-73
2022/08/06 12:47:35;;;;;;;0.20;0.20;;;27.80;49.50;;;;;;5019063;28;20061;-72
2022/08/06 12:50:00;;;;;;;0.68;0.55;;;26.70;51.70;;;;;;5019586;28;20068;-74
2022/08/06 12:52:25;;;;;;;0.20;0.20;;;26.10;49.60;;;;;;5021805;28;20029;-75
2022/08/06 12:54:51;;;;;;;1.15;0.57;;;25.40;52.60;;;;;;5009067;28;20028;-74
2022/08/06 12:57:25;;;;;;;0.22;0.22;;;24.90;53.40;;;;;;5025739;28;20051;-74
2022/08/06 12:59:52;;;;;;;0.20;0.20;;;24.60;57.00;;;;;;5019165;28;20026;-76
2022/08/06 13:02:20;;;;;;;0.20;0.20;;;24.50;55.50;;;;;;5022685;28;20037;-74
2022/08/06 13:04:52;;;;;;;0.20;0.20;;;24.50;57.50;;;;;;5024427;28;20059;-73
2022/08/06 13:07:19;;;;;;;0.63;0.17;;;27.10;54.70;;;;;;5019233;28;20036;-76
2022/08/06 13:09:46;;;;;;;0.57;0.57;;;29.90;49.60;;;;;;5017468;28;20099;-73
2022/08/06 13:12:20;;;;;;;0.40;0.40;;;31.80;44.40;;;;;;5018817;28;20036;-74
2022/08/06 13:14:58;;;;;;;1.92;1.48;;;30.90;43.10;;;;;;5014632;28;20026;-75
2022/08/06 13:17:23;;;;;;;8.90;1.15;;;29.00;45.70;;;;;;5019179;28;20060;-76
2022/08/06 13:19:54;;;;;;;0.95;0.70;;;27.80;47.20;;;;;;5021526;28;20084;-75
2022/08/06 13:22:21;;;;;;;;;;;26.50;49.10;;;;;;5018326;28;20071;-74
2022/08/06 13:24:47;;;;;;;1.08;0.73;;;25.90;50.40;;;;;;5015452;28;20393;-75
2022/08/06 13:27:12;;;;;;;8.60;4.43;;;25.40;51.70;;;;;;5016008;28;20063;-74
2022/08/06 13:29:59;;;;;;;33.20;19.80;;;25.10;52.40;;;;;;5015531;28;20038;-75
2022/08/06 13:32:26;;;;;;;42.45;21.58;;;24.80;53.00;;;;;;5018677;28;20033;-74
2022/08/06 13:34:57;;;;;;;50.45;28.50;;;24.60;53.20;;;;;;5018709;28;20033;-74
2022/08/06 13:37:49;;;;;;;37.75;16.73;;;24.40;53.00;;;;;;5015436;28;21829;-74
2022/08/06 13:40:16;;;;;;;37.42;18.23;;;24.20;53.30;;;;;;5018224;28;20039;-75
2022/08/06 13:42:53;;;;;;;74.55;36.95;;;24.20;54.20;;;;;;5021218;28;20451;-76
2022/08/06 13:45:27;;;;;;;20.23;11.68;;;24.30;54.40;;;;;;5044512;28;20103;-76
2022/08/06 13:48:07;;;;;;;24.33;12.40;;;24.00;54.20;;;;;;5021673;28;20089;-76
2022/08/06 13:50:34;;;;;;;16.15;7.43;;;23.80;55.70;;;;;;5020408;28;20673;-76
2022/08/06 13:53:00;;;;;;;9.10;4.25;;;23.90;55.70;;;;;;5022119;28;20026;-76
2022/08/06 13:55:26;;;;;;;5.47;2.17;;;24.00;54.50;;;;;;5018619;28;20112;-77
2022/08/06 13:57:52;;;;;;;6.82;3.70;;;27.10;51.90;;;;;;5023449;28;20097;-77
2022/08/06 14:00:18;;;;;;;1.75;0.88;;;30.50;44.50;;;;;;5017776;28;20029;-76
2022/08/06 14:02:44;;;;;;;3.47;2.30;;;33.20;41.50;;;;;;5020646;28;20037;-78
2022/08/06 14:05:10;;;;;;;3.33;2.05;;;32.20;39.30;;;;;;5021535;28;20390;-75
2022/08/06 14:07:35;;;;;;;2.20;1.33;;;29.80;42.20;;;;;;5015497;28;20083;-76
2022/08/06 14:10:01;;;;;;;0.93;0.57;;;28.70;43.30;;;;;;5014279;28;20035;-75
2022/08/06 14:12:26;;;;;;;0.20;0.20;;;27.30;42.10;;;;;;5020072;28;20067;-76
2022/08/06 14:14:52;;;;;;;0.70;0.70;;;25.50;44.00;;;;;;5032805;28;20025;-77
2022/08/06 14:17:18;;;;;;;0.55;0.55;;;25.10;48.50;;;;;;5021221;28;20030;-77
2022/08/06 14:19:43;;;;;;;0.52;0.52;;;25.00;49.00;;;;;;5018947;28;20135;-76
2022/08/06 14:22:10;;;;;;;0.65;0.65;;;25.50;48.60;;;;;;5023617;28;20027;-76
2022/08/06 14:24:35;;;;;;;2.40;0.80;;;25.00;48.70;;;;;;5016009;28;20026;-76
2022/08/06 14:27:01;;;;;;;0.28;0.28;;;24.80;49.70;;;;;;5020244;28;20017;-77
2022/08/06 14:29:26;;;;;;;0.40;0.40;;;24.70;50.10;;;;;;5019558;28;20053;-76